sensor_id;sensor_type;location;lat;lon;timestamp;temperature;humidity
25811;DHT22;13645;52.460;13.910;2022-09-09T00:01:03;15.30;99.90
25811;DHT22;13645;52.460;13.910;2022-09-09T00:03:37;15.20;99.90
25811;DHT22;13645;52.460;13.910;2022-09-09T00:06:08;15.30;99.90
25811;DHT22;13645;52.460;13.910;2022-09-09T00:11:19;15.20;99.90
25811;DHT22;13645;52.460;13.910;2022-09-09T00:13:56;15.20;99.90
25811;DHT22;13645;52.460;13.910;2022-09-09T00:16:25;15.20;99.90
25811;DHT22;13645;52.460;13.910;2022-09-09T00:18:57;15.10;99.90
25811;DHT22;13645;52.460;13.910;2022-09-09T00:21:33;15.10;99.90
25811;DHT22;13645;52.460;13.910;2022-09-09T00:24:00;15.10;99.90
25811;DHT22;13645;52.460;13.910;2022-09-09T00:26:42;15.10;99.90
25811;DHT22;13645;52.460;13.910;2022-09-09T00:29:14;15.00;99.90
25811;DHT22;13645;52.460;13.910;2022-09-09T00:31:45;15.00;99.90
25811;DHT22;13645;52.460;13.910;2022-09-09T00:34:20;15.00;99.90
25811;DHT22;13645;52.460;13.910;2022-09-09T00:36:48;14.90;99.90
25811;DHT22;13645;52.460;13.910;2022-09-09T00:39:38;14.90;99.90
25811;DHT22;13645;52.460;13.910;2022-09-09T00:44:40;14.80;99.90
25811;DHT22;13645;52.460;13.910;2022-09-09T00:52:30;14.80;99.90
25811;DHT22;13645;52.460;13.910;2022-09-09T00:57:28;14.70;99.90
25811;DHT22;13645;52.460;13.910;2022-09-09T01:00:15;14.70;99.90
25811;DHT22;13645;52.460;13.910;2022-09-09T01:03:01;14.70;99.90
25811;DHT22;13645;52.460;13.910;2022-09-09T01:08:00;14.60;99.90
25811;DHT22;13645;52.460;13.910;2022-09-09T01:13:23;14.60;99.90
25811;DHT22;13645;52.460;13.910;2022-09-09T01:15:50;14.60;99.90
25811;DHT22;13645;52.460;13.910;2022-09-09T01:18:29;14.50;99.90
25811;DHT22;13645;52.460;13.910;2022-09-09T01:21:02;14.50;99.90
25811;DHT22;13645;52.460;13.910;2022-09-09T01:26:09;14.50;99.90
25811;DHT22;13645;52.460;13.910;2022-09-09T01:28:38;14.50;99.90
25811;DHT22;13645;52.460;13.910;2022-09-09T01:31:05;14.50;99.90
25811;DHT22;13645;52.460;13.910;2022-09-09T01:33:33;14.50;99.90
25811;DHT22;13645;52.460;13.910;2022-09-09T01:36:00;14.50;99.90
25811;DHT22;13645;52.460;13.910;2022-09-09T01:38:28;14.50;99.90
25811;DHT22;13645;52.460;13.910;2022-09-09T01:40:55;14.50;99.90
25811;DHT22;13645;52.460;13.910;2022-09-09T01:43:22;14.40;99.90
25811;DHT22;13645;52.460;13.910;2022-09-09T01:45:50;14.40;99.90
25811;DHT22;13645;52.460;13.910;2022-09-09T01:48:19;14.40;99.90
25811;DHT22;13645;52.460;13.910;2022-09-09T01:50:47;14.30;99.90
25811;DHT22;13645;52.460;13.910;2022-09-09T01:53:14;14.40;99.90
25811;DHT22;13645;52.460;13.910;2022-09-09T01:55:41;14.40;99.90
25811;DHT22;13645;52.460;13.910;2022-09-09T01:58:12;14.30;99.90
25811;DHT22;13645;52.460;13.910;2022-09-09T02:00:45;14.30;99.90
25811;DHT22;13645;52.460;13.910;2022-09-09T02:05:49;14.10;99.90
25811;DHT22;13645;52.460;13.910;2022-09-09T02:08:21;14.10;99.90
25811;DHT22;13645;52.460;13.910;2022-09-09T02:13:25;14.00;99.90
25811;DHT22;13645;52.460;13.910;2022-09-09T02:15:52;14.00;99.90
25811;DHT22;13645;52.460;13.910;2022-09-09T02:18:38;14.00;99.90
25811;DHT22;13645;52.460;13.910;2022-09-09T02:21:06;14.00;99.90
25811;DHT22;13645;52.460;13.910;2022-09-09T02:23:34;13.90;99.90
25811;DHT22;13645;52.460;13.910;2022-09-09T02:26:00;14.00;99.90
25811;DHT22;13645;52.460;13.910;2022-09-09T02:28:28;13.90;99.90
25811;DHT22;13645;52.460;13.910;2022-09-09T02:30:56;13.80;99.90
25811;DHT22;13645;52.460;13.910;2022-09-09T02:33:25;13.80;99.90
25811;DHT22;13645;52.460;13.910;2022-09-09T02:35:52;13.70;99.90
25811;DHT22;13645;52.460;13.910;2022-09-09T02:38:20;13.70;99.90
25811;DHT22;13645;52.460;13.910;2022-09-09T02:40:47;13.70;99.90
25811;DHT22;13645;52.460;13.910;2022-09-09T02:43:15;13.60;99.90
25811;DHT22;13645;52.460;13.910;2022-09-09T02:45:49;13.60;99.90
25811;DHT22;13645;52.460;13.910;2022-09-09T02:51:08;13.50;99.90
25811;DHT22;13645;52.460;13.910;2022-09-09T02:53:43;13.50;99.90
25811;DHT22;13645;52.460;13.910;2022-09-09T02:56:16;13.40;99.90
25811;DHT22;13645;52.460;13.910;2022-09-09T02:58:43;13.40;99.90
25811;DHT22;13645;52.460;13.910;2022-09-09T03:01:10;13.30;99.90
25811;DHT22;13645;52.460;13.910;2022-09-09T03:03:37;13.40;99.90
25811;DHT22;13645;52.460;13.910;2022-09-09T03:06:04;13.40;99.90
25811;DHT22;13645;52.460;13.910;2022-09-09T03:08:32;13.30;99.90
25811;DHT22;13645;52.460;13.910;2022-09-09T03:10:58;13.30;99.90
25811;DHT22;13645;52.460;13.910;2022-09-09T03:13:27;13.30;99.90
25811;DHT22;13645;52.460;13.910;2022-09-09T03:15:54;13.20;99.90
25811;DHT22;13645;52.460;13.910;2022-09-09T03:18:21;13.20;99.90
25811;DHT22;13645;52.460;13.910;2022-09-09T03:20:47;13.20;99.90
25811;DHT22;13645;52.460;13.910;2022-09-09T03:23:14;13.20;99.90
25811;DHT22;13645;52.460;13.910;2022-09-09T03:25:48;13.20;99.90
25811;DHT22;13645;52.460;13.910;2022-09-09T03:28:15;13.10;99.90
25811;DHT22;13645;52.460;13.910;2022-09-09T03:30:41;13.10;99.90
25811;DHT22;13645;52.460;13.910;2022-09-09T03:33:08;13.10;99.90
25811;DHT22;13645;52.460;13.910;2022-09-09T03:35:34;13.10;99.90
25811;DHT22;13645;52.460;13.910;2022-09-09T03:38:01;13.10;99.90
25811;DHT22;13645;52.460;13.910;2022-09-09T03:40:27;13.10;99.90
25811;DHT22;13645;52.460;13.910;2022-09-09T03:42:54;13.00;99.90
25811;DHT22;13645;52.460;13.910;2022-09-09T03:45:21;13.00;99.90
25811;DHT22;13645;52.460;13.910;2022-09-09T03:47:47;13.00;99.90
25811;DHT22;13645;52.460;13.910;2022-09-09T03:50:16;13.00;99.90
25811;DHT22;13645;52.460;13.910;2022-09-09T03:52:44;12.90;99.90
25811;DHT22;13645;52.460;13.910;2022-09-09T03:55:11;13.00;99.90
25811;DHT22;13645;52.460;13.910;2022-09-09T03:57:37;12.90;99.90
25811;DHT22;13645;52.460;13.910;2022-09-09T04:00:04;12.90;99.90
25811;DHT22;13645;52.460;13.910;2022-09-09T04:02:31;12.90;99.90
25811;DHT22;13645;52.460;13.910;2022-09-09T04:04:58;12.90;99.90
25811;DHT22;13645;52.460;13.910;2022-09-09T04:07:25;12.90;99.90
25811;DHT22;13645;52.460;13.910;2022-09-09T04:09:53;12.80;99.90
25811;DHT22;13645;52.460;13.910;2022-09-09T04:12:21;12.80;99.90
25811;DHT22;13645;52.460;13.910;2022-09-09T04:14:48;12.80;99.90
25811;DHT22;13645;52.460;13.910;2022-09-09T04:17:15;12.80;99.90
25811;DHT22;13645;52.460;13.910;2022-09-09T04:19:42;12.80;99.90
25811;DHT22;13645;52.460;13.910;2022-09-09T04:22:08;12.80;99.90
25811;DHT22;13645;52.460;13.910;2022-09-09T04:24:35;12.80;99.90
25811;DHT22;13645;52.460;13.910;2022-09-09T04:27:02;12.80;99.90
25811;DHT22;13645;52.460;13.910;2022-09-09T04:29:29;12.80;99.90
25811;DHT22;13645;52.460;13.910;2022-09-09T04:31:55;12.70;99.90
25811;DHT22;13645;52.460;13.910;2022-09-09T04:34:22;12.70;99.90
25811;DHT22;13645;52.460;13.910;2022-09-09T04:36:49;12.70;99.90
25811;DHT22;13645;52.460;13.910;2022-09-09T04:39:15;12.70;99.90
25811;DHT22;13645;52.460;13.910;2022-09-09T04:41:42;12.70;99.90
25811;DHT22;13645;52.460;13.910;2022-09-09T04:44:08;12.70;99.90
25811;DHT22;13645;52.460;13.910;2022-09-09T04:46:36;12.70;99.90
25811;DHT22;13645;52.460;13.910;2022-09-09T04:49:02;12.70;99.90
25811;DHT22;13645;52.460;13.910;2022-09-09T04:51:29;12.70;99.90
25811;DHT22;13645;52.460;13.910;2022-09-09T04:53:57;12.70;99.90
25811;DHT22;13645;52.460;13.910;2022-09-09T04:56:24;12.70;99.90
25811;DHT22;13645;52.460;13.910;2022-09-09T04:58:53;12.70;99.90
25811;DHT22;13645;52.460;13.910;2022-09-09T05:01:20;12.70;99.90
25811;DHT22;13645;52.460;13.910;2022-09-09T05:03:48;12.70;99.90
25811;DHT22;13645;52.460;13.910;2022-09-09T05:06:16;12.80;99.90
25811;DHT22;13645;52.460;13.910;2022-09-09T05:08:43;12.70;99.90
25811;DHT22;13645;52.460;13.910;2022-09-09T05:11:29;12.70;99.90
25811;DHT22;13645;52.460;13.910;2022-09-09T05:13:56;12.80;99.90
25811;DHT22;13645;52.460;13.910;2022-09-09T05:16:23;12.70;99.90
25811;DHT22;13645;52.460;13.910;2022-09-09T05:18:50;12.70;99.90
25811;DHT22;13645;52.460;13.910;2022-09-09T05:21:20;12.70;99.90
25811;DHT22;13645;52.460;13.910;2022-09-09T05:23:47;12.80;99.90
25811;DHT22;13645;52.460;13.910;2022-09-09T05:26:18;12.80;99.90
25811;DHT22;13645;52.460;13.910;2022-09-09T05:28:45;12.80;99.90
25811;DHT22;13645;52.460;13.910;2022-09-09T05:31:12;12.80;99.90
25811;DHT22;13645;52.460;13.910;2022-09-09T05:33:40;12.80;99.90
25811;DHT22;13645;52.460;13.910;2022-09-09T05:36:08;12.80;99.90
25811;DHT22;13645;52.460;13.910;2022-09-09T05:38:34;12.90;99.90
25811;DHT22;13645;52.460;13.910;2022-09-09T05:41:02;13.00;99.90
25811;DHT22;13645;52.460;13.910;2022-09-09T05:43:29;13.00;99.90
25811;DHT22;13645;52.460;13.910;2022-09-09T05:45:59;13.00;99.90
25811;DHT22;13645;52.460;13.910;2022-09-09T05:48:28;13.00;99.90
25811;DHT22;13645;52.460;13.910;2022-09-09T05:50:55;13.10;99.90
25811;DHT22;13645;52.460;13.910;2022-09-09T05:53:22;13.20;99.90
25811;DHT22;13645;52.460;13.910;2022-09-09T05:55:48;13.20;99.90
25811;DHT22;13645;52.460;13.910;2022-09-09T05:58:15;13.30;99.90
25811;DHT22;13645;52.460;13.910;2022-09-09T06:00:43;13.40;99.90
25811;DHT22;13645;52.460;13.910;2022-09-09T06:03:11;13.50;99.90
25811;DHT22;13645;52.460;13.910;2022-09-09T06:05:37;13.60;99.90
25811;DHT22;13645;52.460;13.910;2022-09-09T06:08:04;13.70;99.90
25811;DHT22;13645;52.460;13.910;2022-09-09T06:10:31;13.80;99.90
25811;DHT22;13645;52.460;13.910;2022-09-09T06:12:58;13.90;99.90
25811;DHT22;13645;52.460;13.910;2022-09-09T06:15:24;13.90;99.90
25811;DHT22;13645;52.460;13.910;2022-09-09T06:17:54;14.00;99.90
25811;DHT22;13645;52.460;13.910;2022-09-09T06:20:21;14.10;99.90
25811;DHT22;13645;52.460;13.910;2022-09-09T06:22:49;14.10;99.90
25811;DHT22;13645;52.460;13.910;2022-09-09T06:25:15;14.20;99.90
25811;DHT22;13645;52.460;13.910;2022-09-09T06:27:42;14.30;99.90
25811;DHT22;13645;52.460;13.910;2022-09-09T06:30:08;14.30;99.90
25811;DHT22;13645;52.460;13.910;2022-09-09T06:32:36;14.40;99.90
25811;DHT22;13645;52.460;13.910;2022-09-09T06:35:04;14.50;99.90
25811;DHT22;13645;52.460;13.910;2022-09-09T06:37:31;14.60;99.90
25811;DHT22;13645;52.460;13.910;2022-09-09T06:39:57;14.70;99.90
25811;DHT22;13645;52.460;13.910;2022-09-09T06:42:24;14.70;99.90
25811;DHT22;13645;52.460;13.910;2022-09-09T06:44:50;14.90;99.90
25811;DHT22;13645;52.460;13.910;2022-09-09T06:47:18;15.00;99.90
25811;DHT22;13645;52.460;13.910;2022-09-09T06:49:45;15.10;99.90
25811;DHT22;13645;52.460;13.910;2022-09-09T06:52:13;15.20;99.90
25811;DHT22;13645;52.460;13.910;2022-09-09T06:54:40;15.30;99.90
25811;DHT22;13645;52.460;13.910;2022-09-09T06:57:07;15.40;99.90
25811;DHT22;13645;52.460;13.910;2022-09-09T06:59:53;15.60;99.90
25811;DHT22;13645;52.460;13.910;2022-09-09T07:02:20;15.90;99.90
25811;DHT22;13645;52.460;13.910;2022-09-09T07:04:47;16.20;99.90
25811;DHT22;13645;52.460;13.910;2022-09-09T07:07:17;16.50;99.90
25811;DHT22;13645;52.460;13.910;2022-09-09T07:09:44;16.80;99.90
25811;DHT22;13645;52.460;13.910;2022-09-09T07:12:12;17.10;99.90
25811;DHT22;13645;52.460;13.910;2022-09-09T07:14:38;17.40;99.90
25811;DHT22;13645;52.460;13.910;2022-09-09T07:17:05;17.70;99.90
25811;DHT22;13645;52.460;13.910;2022-09-09T07:19:32;17.90;99.90
25811;DHT22;13645;52.460;13.910;2022-09-09T07:22:00;18.00;99.90
25811;DHT22;13645;52.460;13.910;2022-09-09T07:24:28;18.00;99.90
25811;DHT22;13645;52.460;13.910;2022-09-09T07:26:56;18.20;99.90
25811;DHT22;13645;52.460;13.910;2022-09-09T07:29:23;18.40;99.90
25811;DHT22;13645;52.460;13.910;2022-09-09T07:31:50;18.70;99.90
25811;DHT22;13645;52.460;13.910;2022-09-09T07:34:16;18.80;99.90
25811;DHT22;13645;52.460;13.910;2022-09-09T07:36:43;19.10;99.90
25811;DHT22;13645;52.460;13.910;2022-09-09T07:39:11;19.20;99.90
25811;DHT22;13645;52.460;13.910;2022-09-09T07:41:38;19.40;99.90
25811;DHT22;13645;52.460;13.910;2022-09-09T07:44:07;19.70;99.90
25811;DHT22;13645;52.460;13.910;2022-09-09T07:46:34;20.00;99.90
25811;DHT22;13645;52.460;13.910;2022-09-09T07:49:02;20.20;99.90
25811;DHT22;13645;52.460;13.910;2022-09-09T07:51:30;20.20;99.90
25811;DHT22;13645;52.460;13.910;2022-09-09T07:53:58;20.20;99.90
25811;DHT22;13645;52.460;13.910;2022-09-09T07:56:26;20.20;99.90
25811;DHT22;13645;52.460;13.910;2022-09-09T07:58:53;20.20;99.90
25811;DHT22;13645;52.460;13.910;2022-09-09T08:01:21;20.10;99.90
25811;DHT22;13645;52.460;13.910;2022-09-09T08:03:56;20.00;99.90
25811;DHT22;13645;52.460;13.910;2022-09-09T08:06:26;19.90;99.90
25811;DHT22;13645;52.460;13.910;2022-09-09T08:08:53;19.80;99.90
25811;DHT22;13645;52.460;13.910;2022-09-09T08:11:21;19.80;99.90
25811;DHT22;13645;52.460;13.910;2022-09-09T08:13:49;19.60;99.90
25811;DHT22;13645;52.460;13.910;2022-09-09T08:16:25;19.50;99.90
25811;DHT22;13645;52.460;13.910;2022-09-09T08:18:52;19.60;99.90
25811;DHT22;13645;52.460;13.910;2022-09-09T08:21:19;20.00;99.90
25811;DHT22;13645;52.460;13.910;2022-09-09T08:23:47;20.40;99.90
25811;DHT22;13645;52.460;13.910;2022-09-09T08:26:15;20.80;99.90
25811;DHT22;13645;52.460;13.910;2022-09-09T08:28:43;20.90;99.90
25811;DHT22;13645;52.460;13.910;2022-09-09T08:31:13;21.30;99.90
25811;DHT22;13645;52.460;13.910;2022-09-09T08:33:41;21.60;99.90
25811;DHT22;13645;52.460;13.910;2022-09-09T08:36:09;21.80;99.90
25811;DHT22;13645;52.460;13.910;2022-09-09T08:38:36;21.80;99.90
25811;DHT22;13645;52.460;13.910;2022-09-09T08:41:07;21.50;99.90
25811;DHT22;13645;52.460;13.910;2022-09-09T08:43:36;21.30;99.90
25811;DHT22;13645;52.460;13.910;2022-09-09T08:46:07;21.00;99.90
25811;DHT22;13645;52.460;13.910;2022-09-09T08:48:51;20.70;99.90
25811;DHT22;13645;52.460;13.910;2022-09-09T08:51:23;20.70;99.90
25811;DHT22;13645;52.460;13.910;2022-09-09T08:53:50;21.00;99.90
25811;DHT22;13645;52.460;13.910;2022-09-09T08:56:25;21.20;99.90
25811;DHT22;13645;52.460;13.910;2022-09-09T08:58:53;21.30;99.90
25811;DHT22;13645;52.460;13.910;2022-09-09T09:06:39;22.40;99.90
25811;DHT22;13645;52.460;13.910;2022-09-09T09:09:21;22.40;99.90
25811;DHT22;13645;52.460;13.910;2022-09-09T09:11:53;22.50;99.90
25811;DHT22;13645;52.460;13.910;2022-09-09T09:14:34;22.50;99.90
25811;DHT22;13645;52.460;13.910;2022-09-09T09:17:21;22.40;99.90
25811;DHT22;13645;52.460;13.910;2022-09-09T09:19:53;22.30;99.90
25811;DHT22;13645;52.460;13.910;2022-09-09T09:25:08;22.10;99.90
25811;DHT22;13645;52.460;13.910;2022-09-09T09:27:47;22.10;99.90
25811;DHT22;13645;52.460;13.910;2022-09-09T09:30:17;21.80;99.90
25811;DHT22;13645;52.460;13.910;2022-09-09T09:33:06;21.90;99.90
25811;DHT22;13645;52.460;13.910;2022-09-09T09:35:37;22.10;99.90
25811;DHT22;13645;52.460;13.910;2022-09-09T09:38:14;22.50;99.90
25811;DHT22;13645;52.460;13.910;2022-09-09T09:41:02;22.60;99.90
25811;DHT22;13645;52.460;13.910;2022-09-09T09:43:54;22.60;99.90
25811;DHT22;13645;52.460;13.910;2022-09-09T09:46:20;22.80;99.90
25811;DHT22;13645;52.460;13.910;2022-09-09T09:48:57;22.80;99.90
25811;DHT22;13645;52.460;13.910;2022-09-09T09:51:26;22.60;99.90
25811;DHT22;13645;52.460;13.910;2022-09-09T09:54:37;22.60;99.90
25811;DHT22;13645;52.460;13.910;2022-09-09T09:56:45;22.60;99.90
25811;DHT22;13645;52.460;13.910;2022-09-09T10:02:25;22.80;99.90
25811;DHT22;13645;52.460;13.910;2022-09-09T10:05:03;22.70;99.90
25811;DHT22;13645;52.460;13.910;2022-09-09T10:07:32;22.70;99.90
25811;DHT22;13645;52.460;13.910;2022-09-09T10:10:02;22.50;99.90
25811;DHT22;13645;52.460;13.910;2022-09-09T10:12:43;22.40;99.90
25811;DHT22;13645;52.460;13.910;2022-09-09T10:15:46;22.50;99.90
25811;DHT22;13645;52.460;13.910;2022-09-09T10:18:40;22.40;99.90
25811;DHT22;13645;52.460;13.910;2022-09-09T10:21:29;22.30;99.90
25811;DHT22;13645;52.460;13.910;2022-09-09T10:24:07;22.20;99.90
25811;DHT22;13645;52.460;13.910;2022-09-09T10:26:42;22.20;99.90
25811;DHT22;13645;52.460;13.910;2022-09-09T10:29:37;22.30;99.90
25811;DHT22;13645;52.460;13.910;2022-09-09T10:34:56;22.30;99.90
25811;DHT22;13645;52.460;13.910;2022-09-09T10:42:58;22.80;99.90
25811;DHT22;13645;52.460;13.910;2022-09-09T10:45:39;23.00;99.90
25811;DHT22;13645;52.460;13.910;2022-09-09T10:53:44;23.70;99.90
25811;DHT22;13645;52.460;13.910;2022-09-09T10:56:20;24.10;99.90
25811;DHT22;13645;52.460;13.910;2022-09-09T10:59:07;24.30;99.90
25811;DHT22;13645;52.460;13.910;2022-09-09T11:01:52;24.70;99.90
25811;DHT22;13645;52.460;13.910;2022-09-09T11:04:29;24.90;99.90
25811;DHT22;13645;52.460;13.910;2022-09-09T11:10:01;24.70;99.90
25811;DHT22;13645;52.460;13.910;2022-09-09T11:12:37;24.40;99.90
25811;DHT22;13645;52.460;13.910;2022-09-09T11:15:39;24.10;99.90
25811;DHT22;13645;52.460;13.910;2022-09-09T11:18:26;24.10;99.90
25811;DHT22;13645;52.460;13.910;2022-09-09T11:21:11;24.00;99.90
25811;DHT22;13645;52.460;13.910;2022-09-09T11:24:12;24.30;99.90
25811;DHT22;13645;52.460;13.910;2022-09-09T11:51:47;25.60;99.90
25811;DHT22;13645;52.460;13.910;2022-09-09T13:25:41;24.90;99.90
25811;DHT22;13645;52.460;13.910;2022-09-09T13:40:17;25.30;99.90
25811;DHT22;13645;52.460;13.910;2022-09-09T13:42:44;25.30;99.90
25811;DHT22;13645;52.460;13.910;2022-09-09T13:45:17;25.30;99.90
25811;DHT22;13645;52.460;13.910;2022-09-09T13:47:47;25.20;99.90
25811;DHT22;13645;52.460;13.910;2022-09-09T13:50:22;25.10;99.90
25811;DHT22;13645;52.460;13.910;2022-09-09T13:52:50;24.90;99.90
25811;DHT22;13645;52.460;13.910;2022-09-09T13:55:20;24.70;99.90
25811;DHT22;13645;52.460;13.910;2022-09-09T13:57:51;24.50;99.90
25811;DHT22;13645;52.460;13.910;2022-09-09T14:00:18;24.30;99.90
25811;DHT22;13645;52.460;13.910;2022-09-09T14:02:45;24.10;99.90
25811;DHT22;13645;52.460;13.910;2022-09-09T14:05:11;23.90;99.90
25811;DHT22;13645;52.460;13.910;2022-09-09T14:07:38;23.80;99.90
25811;DHT22;13645;52.460;13.910;2022-09-09T14:10:06;23.60;99.90
25811;DHT22;13645;52.460;13.910;2022-09-09T14:12:33;23.60;99.90
25811;DHT22;13645;52.460;13.910;2022-09-09T14:14:59;23.50;99.90
25811;DHT22;13645;52.460;13.910;2022-09-09T14:17:26;23.40;99.90
25811;DHT22;13645;52.460;13.910;2022-09-09T14:19:55;23.30;99.90
25811;DHT22;13645;52.460;13.910;2022-09-09T14:22:22;23.20;99.90
25811;DHT22;13645;52.460;13.910;2022-09-09T14:24:49;23.10;99.90
25811;DHT22;13645;52.460;13.910;2022-09-09T14:27:16;22.90;99.90
25811;DHT22;13645;52.460;13.910;2022-09-09T14:29:44;22.90;99.90
25811;DHT22;13645;52.460;13.910;2022-09-09T14:32:11;22.80;99.90
25811;DHT22;13645;52.460;13.910;2022-09-09T14:34:38;22.70;99.90
25811;DHT22;13645;52.460;13.910;2022-09-09T14:37:04;22.70;99.90
25811;DHT22;13645;52.460;13.910;2022-09-09T14:39:31;22.60;99.90
25811;DHT22;13645;52.460;13.910;2022-09-09T14:41:58;22.50;99.90
25811;DHT22;13645;52.460;13.910;2022-09-09T14:48:33;21.80;99.90
25811;DHT22;13645;52.460;13.910;2022-09-09T14:51:18;21.40;99.90
25811;DHT22;13645;52.460;13.910;2022-09-09T14:53:46;21.10;99.90
25811;DHT22;13645;52.460;13.910;2022-09-09T15:02:51;20.60;99.90
25811;DHT22;13645;52.460;13.910;2022-09-09T15:05:30;20.40;99.90
25811;DHT22;13645;52.460;13.910;2022-09-09T15:08:10;20.30;99.90
25811;DHT22;13645;52.460;13.910;2022-09-09T15:10:37;20.30;99.90
25811;DHT22;13645;52.460;13.910;2022-09-09T15:13:10;20.50;99.90
25811;DHT22;13645;52.460;13.910;2022-09-09T15:15:54;20.70;99.90
25811;DHT22;13645;52.460;13.910;2022-09-09T15:18:37;20.60;99.90
25811;DHT22;13645;52.460;13.910;2022-09-09T15:21:09;20.60;99.90
25811;DHT22;13645;52.460;13.910;2022-09-09T15:23:37;20.50;99.90
25811;DHT22;13645;52.460;13.910;2022-09-09T15:26:04;20.40;99.90
25811;DHT22;13645;52.460;13.910;2022-09-09T15:28:36;20.40;99.90
25811;DHT22;13645;52.460;13.910;2022-09-09T15:31:05;20.30;99.90
25811;DHT22;13645;52.460;13.910;2022-09-09T15:33:35;20.10;99.90
25811;DHT22;13645;52.460;13.910;2022-09-09T15:36:35;20.20;99.90
25811;DHT22;13645;52.460;13.910;2022-09-09T15:39:09;20.10;99.90
25811;DHT22;13645;52.460;13.910;2022-09-09T15:41:42;20.00;99.90
25811;DHT22;13645;52.460;13.910;2022-09-09T15:44:10;20.00;99.90
25811;DHT22;13645;52.460;13.910;2022-09-09T15:47:12;20.00;99.90
25811;DHT22;13645;52.460;13.910;2022-09-09T15:49:31;19.90;99.90
25811;DHT22;13645;52.460;13.910;2022-09-09T15:52:04;19.90;99.90
25811;DHT22;13645;52.460;13.910;2022-09-09T15:54:32;20.00;99.90
25811;DHT22;13645;52.460;13.910;2022-09-09T15:57:07;19.90;99.90
25811;DHT22;13645;52.460;13.910;2022-09-09T15:59:44;20.00;99.90
25811;DHT22;13645;52.460;13.910;2022-09-09T16:02:26;20.00;99.90
25811;DHT22;13645;52.460;13.910;2022-09-09T16:08:21;19.90;99.90
25811;DHT22;13645;52.460;13.910;2022-09-09T16:11:07;19.80;99.90
25811;DHT22;13645;52.460;13.910;2022-09-09T16:13:38;19.80;99.90
25811;DHT22;13645;52.460;13.910;2022-09-09T16:16:17;19.80;99.90
25811;DHT22;13645;52.460;13.910;2022-09-09T16:18:47;19.80;99.90
25811;DHT22;13645;52.460;13.910;2022-09-09T16:21:21;19.70;99.90
25811;DHT22;13645;52.460;13.910;2022-09-09T16:23:49;19.70;99.90
25811;DHT22;13645;52.460;13.910;2022-09-09T16:26:19;19.50;99.90
25811;DHT22;13645;52.460;13.910;2022-09-09T16:28:46;19.40;99.90
25811;DHT22;13645;52.460;13.910;2022-09-09T16:31:18;19.30;99.90
25811;DHT22;13645;52.460;13.910;2022-09-09T16:33:46;19.20;99.90
25811;DHT22;13645;52.460;13.910;2022-09-09T16:36:16;19.10;99.90
25811;DHT22;13645;52.460;13.910;2022-09-09T16:38:44;19.00;99.90
25811;DHT22;13645;52.460;13.910;2022-09-09T16:41:12;18.90;99.90
25811;DHT22;13645;52.460;13.910;2022-09-09T16:43:39;18.80;99.90
25811;DHT22;13645;52.460;13.910;2022-09-09T16:46:17;18.80;99.90
25811;DHT22;13645;52.460;13.910;2022-09-09T16:48:45;18.70;99.90
25811;DHT22;13645;52.460;13.910;2022-09-09T16:51:13;18.60;99.90
25811;DHT22;13645;52.460;13.910;2022-09-09T16:53:55;18.50;99.90
25811;DHT22;13645;52.460;13.910;2022-09-09T16:56:22;18.40;99.90
25811;DHT22;13645;52.460;13.910;2022-09-09T16:58:54;18.40;99.90
25811;DHT22;13645;52.460;13.910;2022-09-09T17:01:22;18.20;99.90
25811;DHT22;13645;52.460;13.910;2022-09-09T17:03:53;18.00;99.90
25811;DHT22;13645;52.460;13.910;2022-09-09T17:06:26;17.90;99.90
25811;DHT22;13645;52.460;13.910;2022-09-09T17:08:56;17.80;99.90
25811;DHT22;13645;52.460;13.910;2022-09-09T17:11:25;17.70;99.90
25811;DHT22;13645;52.460;13.910;2022-09-09T17:14:10;17.60;99.90
25811;DHT22;13645;52.460;13.910;2022-09-09T17:16:40;17.50;99.90
25811;DHT22;13645;52.460;13.910;2022-09-09T17:19:07;17.40;99.90
25811;DHT22;13645;52.460;13.910;2022-09-09T17:21:37;17.30;99.90
25811;DHT22;13645;52.460;13.910;2022-09-09T17:24:24;17.30;99.90
25811;DHT22;13645;52.460;13.910;2022-09-09T17:27:07;17.30;99.90
25811;DHT22;13645;52.460;13.910;2022-09-09T17:29:39;17.20;99.90
25811;DHT22;13645;52.460;13.910;2022-09-09T17:32:05;17.20;99.90
25811;DHT22;13645;52.460;13.910;2022-09-09T17:34:49;17.20;99.90
25811;DHT22;13645;52.460;13.910;2022-09-09T17:37:16;17.10;99.90
25811;DHT22;13645;52.460;13.910;2022-09-09T17:39:42;17.10;99.90
25811;DHT22;13645;52.460;13.910;2022-09-09T17:42:12;17.10;99.90
25811;DHT22;13645;52.460;13.910;2022-09-09T17:44:43;17.00;99.90
25811;DHT22;13645;52.460;13.910;2022-09-09T17:47:12;17.10;99.90
25811;DHT22;13645;52.460;13.910;2022-09-09T17:49:41;17.00;99.90
25811;DHT22;13645;52.460;13.910;2022-09-09T17:52:08;16.90;99.90
25811;DHT22;13645;52.460;13.910;2022-09-09T17:54:38;16.90;99.90
25811;DHT22;13645;52.460;13.910;2022-09-09T17:57:04;16.90;99.90
25811;DHT22;13645;52.460;13.910;2022-09-09T17:59:32;16.90;99.90
25811;DHT22;13645;52.460;13.910;2022-09-09T18:01:58;16.80;99.90
25811;DHT22;13645;52.460;13.910;2022-09-09T18:04:25;16.80;99.90
25811;DHT22;13645;52.460;13.910;2022-09-09T18:06:54;16.80;99.90
25811;DHT22;13645;52.460;13.910;2022-09-09T18:09:22;16.80;99.90
25811;DHT22;13645;52.460;13.910;2022-09-09T18:11:50;16.70;99.90
25811;DHT22;13645;52.460;13.910;2022-09-09T18:14:18;16.70;99.90
25811;DHT22;13645;52.460;13.910;2022-09-09T18:16:45;16.70;99.90
25811;DHT22;13645;52.460;13.910;2022-09-09T18:19:13;16.70;99.90
25811;DHT22;13645;52.460;13.910;2022-09-09T18:21:43;16.70;99.90
25811;DHT22;13645;52.460;13.910;2022-09-09T18:24:10;16.70;99.90
25811;DHT22;13645;52.460;13.910;2022-09-09T18:26:38;16.70;99.90
25811;DHT22;13645;52.460;13.910;2022-09-09T18:29:06;16.70;99.90
25811;DHT22;13645;52.460;13.910;2022-09-09T18:31:36;16.70;99.90
25811;DHT22;13645;52.460;13.910;2022-09-09T18:34:07;16.80;99.90
25811;DHT22;13645;52.460;13.910;2022-09-09T18:36:36;16.80;99.90
25811;DHT22;13645;52.460;13.910;2022-09-09T18:39:04;16.80;99.90
25811;DHT22;13645;52.460;13.910;2022-09-09T18:41:34;16.80;99.90
25811;DHT22;13645;52.460;13.910;2022-09-09T18:44:02;16.80;99.90
25811;DHT22;13645;52.460;13.910;2022-09-09T18:46:33;16.90;99.90
25811;DHT22;13645;52.460;13.910;2022-09-09T18:49:02;16.90;99.90
25811;DHT22;13645;52.460;13.910;2022-09-09T18:51:29;16.90;99.90
25811;DHT22;13645;52.460;13.910;2022-09-09T18:53:59;16.80;99.90
25811;DHT22;13645;52.460;13.910;2022-09-09T18:56:27;16.80;99.90